Time;durP1;ratioP1;P1;durP2;ratioP2;P2;SDS_P1;SDS_P2;PMS_P1;PMS_P2;Temp;Humidity;BMP_temperature;BMP_pressure;BME280_temperature;BME280_humidity;BME280_pressure;Samples;Min_cycle;Max_cycle;Signal;HPM_P1;HPM_P2
2022/12/02 00:01:13;;;;;;;60.00;29.80;;;21.20;58.20;;;;;;215185;1284;25280;-56
2022/12/02 00:06:33;;;;;;;69.20;31.60;;;21.20;58.20;;;;;;217706;1278;25445;-55
2022/12/02 00:11:39;;;;;;;75.80;32.50;;;21.30;62.10;;;;;;215555;1276;22568;-56
2022/12/02 00:16:42;;;;;;;68.20;30.10;;;21.70;61.20;;;;;;215435;1272;26470;-55
2022/12/02 00:21:50;;;;;;;62.00;29.20;;;22.00;60.50;;;;;;215406;1283;25332;-57
2022/12/02 00:26:55;;;;;;;62.20;28.00;;;22.30;60.20;;;;;;215551;1283;22491;-56
2022/12/02 00:31:59;;;;;;;66.70;28.40;;;22.30;58.60;;;;;;215447;1297;22453;-56
2022/12/02 00:37:04;;;;;;;59.80;27.20;;;22.40;58.80;;;;;;215238;1294;22482;-55
2022/12/02 00:42:10;;;;;;;47.30;25.40;;;22.50;58.50;;;;;;215555;1291;23845;-56
2022/12/02 00:47:14;;;;;;;52.90;26.40;;;22.60;57.60;;;;;;215255;1295;25292;-56
2022/12/02 00:52:17;;;;;;;47.10;24.80;;;22.60;57.50;;;;;;215209;1283;26553;-56
2022/12/02 00:57:21;;;;;;;47.80;23.90;;;22.70;57.20;;;;;;215217;1273;22501;-56
2022/12/02 01:02:24;;;;;;;50.50;25.90;;;22.70;56.80;;;;;;215636;1280;24362;-56
2022/12/02 01:07:28;;;;;;;44.70;24.50;;;22.80;56.70;;;;;;215594;1283;25206;-56
2022/12/02 01:12:32;;;;;;;42.80;23.80;;;22.80;56.50;;;;;;215670;1295;26464;-57
2022/12/02 01:17:36;;;;;;;43.10;24.00;;;22.90;56.20;;;;;;215547;1297;23822;-57
2022/12/02 01:22:40;;;;;;;48.50;24.30;;;22.90;56.00;;;;;;215579;1297;24206;-57
2022/12/02 01:27:43;;;;;;;39.20;20.80;;;22.90;55.80;;;;;;215327;1277;25373;-55
2022/12/02 01:32:47;;;;;;;40.90;21.80;;;23.00;55.70;;;;;;215524;1292;24274;-57
2022/12/02 01:37:51;;;;;;;42.20;21.40;;;23.00;55.50;;;;;;215646;1279;22480;-57
2022/12/02 01:42:55;;;;;;;38.20;20.40;;;23.00;55.60;;;;;;215478;1269;24322;-57
2022/12/02 01:48:00;;;;;;;39.40;21.40;;;22.90;55.70;;;;;;215682;1277;25363;-56
2022/12/02 01:53:04;;;;;;;36.50;20.40;;;22.70;55.90;;;;;;215429;1279;24243;-57
2022/12/02 01:58:11;;;;;;;35.60;19.30;;;22.60;55.90;;;;;;215369;1276;25751;-56
2022/12/02 02:03:15;;;;;;;38.10;20.30;;;22.60;56.00;;;;;;215411;1292;24323;-55
2022/12/02 02:08:19;;;;;;;35.10;19.80;;;22.50;56.10;;;;;;215652;1283;25016;-57
2022/12/02 02:13:22;;;;;;;32.90;18.50;;;22.40;56.20;;;;;;215600;1277;25384;-55
2022/12/02 02:18:26;;;;;;;35.90;19.50;;;22.30;56.50;;;;;;215493;1283;25378;-56
2022/12/02 02:23:30;;;;;;;34.10;19.10;;;22.20;56.40;;;;;;215536;1276;25294;-56
2022/12/02 02:28:34;;;;;;;32.30;19.00;;;22.10;56.40;;;;;;215625;1276;24281;-56
2022/12/02 02:33:39;;;;;;;31.40;18.50;;;22.00;56.50;;;;;;215441;1290;22492;-56
2022/12/02 02:38:43;;;;;;;32.50;18.30;;;21.90;56.50;;;;;;215734;1283;25543;-57
2022/12/02 02:43:47;;;;;;;35.40;17.90;;;21.90;56.40;;;;;;215664;1282;22568;-57
2022/12/02 02:48:52;;;;;;;36.10;18.40;;;21.80;56.50;;;;;;215617;1284;22508;-56
2022/12/02 02:53:56;;;;;;;31.20;18.10;;;21.80;56.60;;;;;;215614;1280;24249;-54
2022/12/02 02:58:59;;;;;;;30.10;17.20;;;21.70;56.50;;;;;;215570;1283;22450;-56
2022/12/02 03:04:08;;;;;;;30.60;16.90;;;21.70;56.50;;;;;;215545;1279;24250;-58
2022/12/02 03:09:15;;;;;;;27.30;16.40;;;21.70;56.70;;;;;;215588;1277;24272;-57
2022/12/02 03:14:21;;;;;;;27.90;15.80;;;21.60;56.60;;;;;;215604;1273;26465;-56
2022/12/02 03:19:25;;;;;;;28.60;16.90;;;21.60;56.60;;;;;;215668;1297;25348;-56
2022/12/02 03:24:31;;;;;;;24.70;16.50;;;21.50;56.60;;;;;;215628;1293;24438;-56
2022/12/02 03:29:36;;;;;;;25.70;14.90;;;21.50;56.70;;;;;;215670;1285;22461;-56
2022/12/02 03:34:41;;;;;;;26.40;15.30;;;21.40;56.80;;;;;;215666;1283;25403;-60
2022/12/02 03:39:44;;;;;;;24.50;14.40;;;21.40;56.90;;;;;;215710;1290;23049;-57
2022/12/02 03:44:49;;;;;;;22.70;13.70;;;21.30;56.90;;;;;;215659;1283;25307;-57
2022/12/02 03:49:56;;;;;;;26.50;15.00;;;21.30;57.00;;;;;;215638;1291;25052;-54
2022/12/02 03:55:00;;;;;;;21.90;14.00;;;21.30;57.00;;;;;;215671;1289;22606;-56
2022/12/02 04:00:05;;;;;;;25.70;13.40;;;21.20;57.00;;;;;;215667;1276;23780;-57
2022/12/02 04:05:16;;;;;;;21.90;13.40;;;21.40;57.00;;;;;;215547;1283;24950;-56
2022/12/02 04:10:20;;;;;;;22.20;14.60;;;21.70;56.40;;;;;;215659;1289;25289;-56
2022/12/02 04:15:24;;;;;;;22.20;13.20;;;21.90;55.90;;;;;;215700;1274;22884;-56
2022/12/02 04:20:27;;;;;;;20.70;12.90;;;22.10;55.50;;;;;;215607;1274;22476;-56
2022/12/02 04:25:31;;;;;;;22.60;13.00;;;22.30;55.20;;;;;;215605;1283;26478;-55
2022/12/02 04:30:35;;;;;;;18.40;11.50;;;22.40;54.70;;;;;;215607;1274;24246;-56
2022/12/02 04:35:40;;;;;;;20.70;11.80;;;22.50;54.40;;;;;;215621;1283;25387;-57
2022/12/02 04:40:45;;;;;;;19.70;11.90;;;22.60;54.10;;;;;;215479;1297;25491;-56
2022/12/02 04:45:49;;;;;;;20.60;13.30;;;22.60;53.90;;;;;;215616;1274;25382;-56
2022/12/02 04:50:53;;;;;;;18.20;12.20;;;22.70;53.70;;;;;;215619;1274;24264;-57
2022/12/02 04:55:56;;;;;;;18.20;11.70;;;22.70;53.60;;;;;;215606;1282;25099;-57
2022/12/02 05:01:00;;;;;;;15.50;10.80;;;22.80;53.50;;;;;;215607;1275;23893;-57
2022/12/02 05:06:04;;;;;;;19.30;12.60;;;22.90;53.50;;;;;;215627;1276;25319;-56
2022/12/02 05:11:08;;;;;;;17.50;10.80;;;22.90;53.30;;;;;;215659;1282;23039;-56
2022/12/02 05:16:15;;;;;;;17.50;11.30;;;22.90;53.30;;;;;;215567;1274;23869;-56
2022/12/02 05:21:23;;;;;;;20.30;12.30;;;23.00;53.30;;;;;;215646;1279;22619;-56
2022/12/02 05:26:27;;;;;;;16.90;11.40;;;23.00;53.20;;;;;;215661;1275;25518;-56
2022/12/02 05:31:31;;;;;;;16.00;10.70;;;23.00;53.10;;;;;;215610;1277;24006;-55
2022/12/02 05:36:37;;;;;;;17.30;10.60;;;23.00;53.00;;;;;;215476;1297;22594;-56
2022/12/02 05:41:43;;;;;;;15.10;9.90;;;23.10;53.40;;;;;;215640;1282;26779;-56
2022/12/02 05:46:47;;;;;;;13.50;9.60;;;23.10;52.90;;;;;;215631;1287;22517;-56
2022/12/02 05:51:59;;;;;;;15.00;10.70;;;23.20;52.70;;;;;;215700;1274;22535;-57
2022/12/02 05:57:06;;;;;;;16.60;9.90;;;23.20;52.60;;;;;;215630;1279;24331;-57
2022/12/02 06:02:38;;;;;;;17.00;10.70;;;23.10;52.70;;;;;;215577;1288;22517;-57
2022/12/02 06:07:45;;;;;;;12.90;9.70;;;23.00;52.90;;;;;;215551;1289;25367;-55
2022/12/02 06:12:54;;;;;;;14.50;9.10;;;22.90;53.10;;;;;;215596;1274;25397;-56
2022/12/02 06:17:59;;;;;;;15.60;9.70;;;22.90;53.40;;;;;;215646;1277;22492;-55
2022/12/02 06:23:02;;;;;;;12.30;8.60;;;22.80;54.00;;;;;;215730;1279;25531;-57
2022/12/02 06:28:16;;;;;;;13.70;10.30;;;22.70;53.70;;;;;;215519;1298;23896;-56
2022/12/02 06:33:40;;;;;;;13.50;9.30;;;22.60;53.80;;;;;;215662;1283;25318;-56
2022/12/02 06:38:57;;;;;;;13.00;9.70;;;22.50;53.90;;;;;;215695;1279;22496;-57
2022/12/02 06:49:50;;;;;;;20.50;10.00;;;22.30;54.60;;;;;;215573;1284;23875;-56
2022/12/02 06:54:55;;;;;;;17.30;10.20;;;22.20;54.70;;;;;;215690;1279;24517;-56
2022/12/02 06:59:59;;;;;;;13.70;9.30;;;22.10;55.10;;;;;;215533;1283;22586;-55
2022/12/02 07:05:03;;;;;;;11.60;8.60;;;22.10;55.30;;;;;;215562;1283;22474;-56
2022/12/02 07:10:26;;;;;;;13.70;9.40;;;22.00;55.80;;;;;;215572;1276;22462;-56
2022/12/02 07:15:34;;;;;;;15.70;8.80;;;21.90;55.90;;;;;;215681;1292;24365;-56
2022/12/02 07:20:43;;;;;;;19.40;9.30;;;21.90;55.90;;;;;;215681;1283;22743;-53
2022/12/02 07:25:50;;;;;;;12.40;7.90;;;21.90;56.10;;;;;;215566;1292;22606;-55
2022/12/02 07:30:57;;;;;;;14.10;8.70;;;21.80;56.00;;;;;;215794;1283;25530;-55
2022/12/02 07:36:01;;;;;;;17.70;8.60;;;21.80;56.00;;;;;;215533;1276;22459;-54
2022/12/02 07:41:05;;;;;;;19.40;8.30;;;21.70;56.10;;;;;;222922;1283;22805;-55
2022/12/02 07:46:09;;;;;;;12.10;8.00;;;21.60;56.30;;;;;;217224;1282;22514;-55
2022/12/02 07:51:14;;;;;;;12.70;8.90;;;21.60;56.80;;;;;;215577;1273;24322;-54
2022/12/02 07:56:18;;;;;;;14.90;8.70;;;21.50;56.50;;;;;;215493;1281;22473;-54
2022/12/02 08:01:23;;;;;;;13.30;8.80;;;21.40;56.90;;;;;;215527;1281;23836;-54
2022/12/02 08:06:30;;;;;;;13.90;8.90;;;21.40;56.50;;;;;;215681;1274;22599;-56
2022/12/02 08:11:41;;;;;;;12.70;7.50;;;21.30;56.90;;;;;;215621;1283;23157;-55
2022/12/02 08:16:45;;;;;;;11.70;8.00;;;21.30;56.60;;;;;;215523;1284;23055;-55
2022/12/02 08:21:53;;;;;;;11.70;7.90;;;21.20;56.60;;;;;;215294;1298;22465;-55
2022/12/02 08:26:56;;;;;;;10.00;7.40;;;21.40;56.60;;;;;;215573;1281;25369;-55
2022/12/02 08:32:02;;;;;;;11.00;7.90;;;21.70;55.70;;;;;;215526;1295;22468;-53
2022/12/02 08:37:06;;;;;;;10.90;7.00;;;21.90;55.10;;;;;;215514;1288;22468;-54
2022/12/02 08:42:10;;;;;;;13.20;7.50;;;22.20;55.00;;;;;;215497;1283;25307;-55
2022/12/02 08:47:14;;;;;;;11.70;7.60;;;22.30;54.80;;;;;;215649;1274;22478;-54
2022/12/02 08:52:19;;;;;;;14.50;8.30;;;22.40;54.70;;;;;;215698;1297;22465;-56
2022/12/02 08:57:26;;;;;;;13.10;7.60;;;22.50;54.50;;;;;;215524;1279;22482;-54
2022/12/02 09:02:30;;;;;;;14.20;7.30;;;22.60;54.30;;;;;;215639;1269;22702;-55
2022/12/02 09:07:36;;;;;;;12.00;7.30;;;22.60;53.90;;;;;;215536;1282;24359;-55
2022/12/02 09:12:47;;;;;;;11.30;7.80;;;22.70;53.70;;;;;;215479;1292;22451;-53
2022/12/02 09:17:52;;;;;;;10.10;6.60;;;22.80;54.10;;;;;;215578;1273;24221;-56
2022/12/02 09:22:56;;;;;;;11.10;7.30;;;22.90;53.30;;;;;;215561;1289;25263;-54
2022/12/02 09:28:01;;;;;;;12.80;7.10;;;23.00;53.40;;;;;;215559;1280;22508;-56
2022/12/02 09:33:05;;;;;;;11.10;7.00;;;22.90;53.60;;;;;;215542;1274;25362;-53
2022/12/02 09:38:12;;;;;;;10.80;6.90;;;22.90;53.20;;;;;;215480;1274;25550;-55
2022/12/02 09:43:16;;;;;;;10.70;7.00;;;22.90;53.10;;;;;;215708;1282;24255;-53
2022/12/02 09:48:20;;;;;;;11.20;7.00;;;22.90;53.10;;;;;;215550;1279;23876;-51
2022/12/02 09:53:38;;;;;;;11.40;7.20;;;23.00;53.20;;;;;;215603;1283;22477;-56
2022/12/02 09:58:44;;;;;;;9.50;6.40;;;23.00;53.20;;;;;;215653;1267;22471;-56
2022/12/02 10:03:50;;;;;;;10.20;7.20;;;23.10;53.00;;;;;;215551;1276;25329;-56
2022/12/02 10:08:56;;;;;;;9.70;6.90;;;23.20;52.80;;;;;;215386;1283;27290;-57
2022/12/02 10:14:02;;;;;;;10.90;6.60;;;23.20;52.70;;;;;;215609;1274;22696;-56
2022/12/02 10:19:09;;;;;;;10.50;6.30;;;23.20;52.50;;;;;;215504;1283;24314;-56
2022/12/02 10:24:13;;;;;;;12.00;7.10;;;23.30;52.40;;;;;;215305;1275;207313;-62
2022/12/02 10:29:27;;;;;;;10.00;7.00;;;23.20;52.50;;;;;;215752;1273;22477;-59
2022/12/02 10:34:33;;;;;;;103.00;37.20;;;23.10;52.90;;;;;;215437;1273;22546;-52
2022/12/02 10:39:47;;;;;;;184.50;61.50;;;23.00;53.10;;;;;;215435;1273;25333;-56
2022/12/02 10:45:18;;;;;;;291.90;97.40;;;22.80;53.30;;;;;;215381;1283;24326;-58
2022/12/02 10:50:27;;;;;;;315.10;102.90;;;22.70;53.50;;;;;;215485;1291;25428;-56
2022/12/02 10:55:34;;;;;;;327.80;103.20;;;22.60;53.70;;;;;;215330;1282;22676;-57
2022/12/02 11:00:40;;;;;;;321.40;104.10;;;22.50;54.20;;;;;;215507;1283;25300;-58
2022/12/02 11:05:48;;;;;;;267.30;93.40;;;22.40;53.80;;;;;;215497;1279;24259;-54
2022/12/02 11:11:14;;;;;;;270.30;91.20;;;22.30;54.00;;;;;;215294;1274;22462;-55
2022/12/02 11:16:26;;;;;;;255.90;87.40;;;22.20;53.90;;;;;;215537;1274;24214;-56
2022/12/02 11:21:44;;;;;;;250.50;82.70;;;22.10;54.10;;;;;;215442;1282;22721;-57
2022/12/02 11:27:02;;;;;;;245.40;83.20;;;22.00;54.40;;;;;;215526;1274;22452;-54
2022/12/02 11:32:20;;;;;;;225.20;78.50;;;22.00;54.50;;;;;;215833;1276;22734;-57
2022/12/02 11:37:32;;;;;;;185.10;65.00;;;21.90;54.60;;;;;;215546;1283;25406;-57
2022/12/02 11:42:38;;;;;;;172.80;64.20;;;21.80;54.30;;;;;;215563;1293;24228;-56
2022/12/02 11:47:44;;;;;;;167.80;60.10;;;21.90;54.60;;;;;;215487;1276;22608;-56
2022/12/02 11:53:13;;;;;;;149.60;58.20;;;21.90;54.90;;;;;;215346;1283;22466;-58
2022/12/02 11:58:29;;;;;;;154.20;56.90;;;21.80;54.70;;;;;;215470;1289;25563;-56
2022/12/02 12:03:33;;;;;;;148.60;54.30;;;21.70;54.60;;;;;;215442;1277;22462;-57
2022/12/02 12:08:41;;;;;;;156.10;54.70;;;21.60;54.60;;;;;;215451;1285;22458;-61
2022/12/02 12:14:07;;;;;;;139.40;51.10;;;21.50;55.00;;;;;;215624;1272;22465;-60
2022/12/02 12:19:12;;;;;;;136.80;47.90;;;21.50;55.00;;;;;;215401;1285;22758;-57
2022/12/02 12:24:19;;;;;;;124.60;46.90;;;21.50;54.60;;;;;;215408;1274;25525;-57
2022/12/02 12:29:42;;;;;;;114.00;46.20;;;21.40;54.30;;;;;;215533;1285;22509;-55
2022/12/02 12:34:49;;;;;;;117.80;47.40;;;21.40;54.90;;;;;;215362;1290;22600;-55
2022/12/02 12:40:19;;;;;;;111.50;43.50;;;21.30;54.60;;;;;;215485;1274;24240;-52
2022/12/02 12:45:23;;;;;;;104.80;42.70;;;21.30;54.60;;;;;;215463;1280;22491;-57
2022/12/02 12:50:27;;;;;;;99.30;39.90;;;21.70;54.40;;;;;;215161;1274;27565;-53
2022/12/02 12:55:52;;;;;;;93.30;37.70;;;21.90;53.30;;;;;;215556;1274;23713;-56
2022/12/02 13:01:04;;;;;;;91.50;36.80;;;22.10;52.70;;;;;;215247;1269;22809;-56
2022/12/02 13:06:30;;;;;;;93.80;37.70;;;22.30;52.30;;;;;;215579;1274;22506;-56
2022/12/02 13:11:40;;;;;;;89.50;38.10;;;22.40;52.00;;;;;;215394;1273;25363;-56
2022/12/02 13:16:43;;;;;;;88.60;36.00;;;22.50;51.80;;;;;;215485;1280;26237;-55
2022/12/02 13:21:48;;;;;;;84.20;34.10;;;22.60;51.70;;;;;;215475;1282;24324;-56
2022/12/02 13:26:55;;;;;;;78.00;34.10;;;22.60;51.70;;;;;;215445;1282;22591;-51
2022/12/02 13:32:00;;;;;;;79.70;34.30;;;22.70;51.50;;;;;;215837;1279;26554;-56
2022/12/02 13:37:04;;;;;;;68.40;31.70;;;22.70;51.50;;;;;;215437;1280;25295;-54
2022/12/02 13:42:37;;;;;;;78.60;33.10;;;22.70;51.50;;;;;;215164;1276;24224;-55
2022/12/02 13:47:46;;;;;;;71.20;32.40;;;22.80;51.30;;;;;;215198;1273;23997;-55
2022/12/02 13:52:52;;;;;;;71.10;30.20;;;22.90;51.10;;;;;;215321;1275;24390;-57
2022/12/02 13:57:58;;;;;;;70.10;29.80;;;22.90;51.00;;;;;;215375;1279;24375;-52
2022/12/02 14:03:03;;;;;;;67.10;31.40;;;23.00;51.00;;;;;;215510;1278;23642;-52
2022/12/02 14:08:19;;;;;;;73.40;29.80;;;23.00;51.00;;;;;;215544;1274;22469;-55
2022/12/02 14:13:27;;;;;;;58.70;28.60;;;23.00;50.90;;;;;;215518;1273;23291;-56
2022/12/02 14:18:34;;;;;;;103.70;40.40;;;23.10;50.70;;;;;;215854;1276;22512;-56
2022/12/02 14:23:38;;;;;;;98.10;39.30;;;23.10;50.90;;;;;;215380;1272;25611;-56
2022/12/02 14:28:43;;;;;;;118.30;47.00;;;23.10;51.00;;;;;;215529;1274;22481;-56
2022/12/02 14:33:46;;;;;;;143.90;50.00;;;23.20;50.80;;;;;;217463;1283;23908;-57
2022/12/02 14:39:11;;;;;;;175.00;60.90;;;23.30;50.90;;;;;;215370;1274;24001;-56
2022/12/02 14:44:18;;;;;;;174.80;59.90;;;23.40;51.00;;;;;;215556;1272;25536;-56
2022/12/02 14:49:56;;;;;;;192.20;63.20;;;23.30;51.20;;;;;;215401;1280;24246;-57
2022/12/02 14:55:04;;;;;;;184.10;65.70;;;23.20;53.80;;;;;;215300;1280;22518;-58
2022/12/02 15:00:17;;;;;;;179.60;60.30;;;23.20;54.00;;;;;;215518;1279;22687;-56
2022/12/02 15:05:21;;;;;;;173.40;60.20;;;23.10;54.60;;;;;;215560;1283;22504;-59
2022/12/02 15:10:35;;;;;;;160.50;58.50;;;23.00;54.80;;;;;;215593;1296;24021;-58
2022/12/02 15:15:44;;;;;;;166.50;56.60;;;22.90;54.20;;;;;;215664;1272;22577;-55
2022/12/02 15:20:58;;;;;;;148.40;55.40;;;22.80;54.30;;;;;;215540;1283;23909;-56
2022/12/02 15:26:02;;;;;;;142.20;51.40;;;22.70;54.20;;;;;;215644;1283;25502;-56
2022/12/02 15:31:16;;;;;;;137.10;53.20;;;22.50;54.20;;;;;;215236;1274;25458;-53
2022/12/02 15:36:20;;;;;;;138.20;50.90;;;22.40;54.40;;;;;;215687;1283;25300;-54
2022/12/02 15:41:24;;;;;;;126.30;49.40;;;22.30;54.50;;;;;;215661;1283;24182;-54
2022/12/02 15:46:31;;;;;;;121.70;48.60;;;22.20;54.20;;;;;;215577;1283;22628;-56
2022/12/02 15:51:37;;;;;;;127.40;47.40;;;22.10;54.50;;;;;;215642;1273;22471;-60
2022/12/02 15:56:40;;;;;;;117.50;46.10;;;22.00;54.50;;;;;;215765;1280;25295;-56
2022/12/02 16:01:45;;;;;;;109.20;44.40;;;21.90;54.60;;;;;;215355;1276;23901;-55
2022/12/02 16:06:56;;;;;;;116.20;42.70;;;21.90;54.60;;;;;;215513;1286;22569;-55
2022/12/02 16:12:07;;;;;;;104.70;42.20;;;21.80;54.70;;;;;;215709;1286;22638;-58
2022/12/02 16:17:13;;;;;;;100.70;42.50;;;21.70;54.60;;;;;;215435;1280;22461;-60
2022/12/02 16:22:23;;;;;;;92.00;40.80;;;21.60;54.60;;;;;;215495;1287;22456;-59
2022/12/02 16:27:31;;;;;;;94.60;39.70;;;21.50;54.50;;;;;;215719;1280;22461;-58
2022/12/02 16:32:51;;;;;;;89.00;35.50;;;21.40;54.70;;;;;;215716;1280;22489;-58
2022/12/02 16:37:56;;;;;;;87.40;36.70;;;21.40;54.70;;;;;;215617;1273;25494;-50
2022/12/02 16:43:11;;;;;;;80.50;37.40;;;21.30;54.00;;;;;;215592;1279;24274;-52
2022/12/02 16:48:16;;;;;;;74.70;35.70;;;21.30;54.00;;;;;;215710;1280;26477;-56
2022/12/02 16:53:22;;;;;;;75.80;35.50;;;21.20;54.00;;;;;;215670;1285;22686;-58
2022/12/02 16:58:29;;;;;;;79.30;33.70;;;21.20;54.00;;;;;;215641;1280;22538;-56
2022/12/02 17:03:33;;;;;;;69.70;32.40;;;21.20;53.80;;;;;;215465;1298;23055;-57
2022/12/02 17:08:37;;;;;;;70.80;31.00;;;21.50;53.10;;;;;;215724;1274;25424;-58
2022/12/02 17:13:47;;;;;;;66.20;29.50;;;21.80;52.30;;;;;;215531;1287;22524;-57
2022/12/02 17:18:51;;;;;;;71.80;30.90;;;22.00;52.20;;;;;;215584;1273;24008;-54
2022/12/02 17:23:57;;;;;;;59.20;29.50;;;22.20;51.40;;;;;;215550;1279;25256;-57
2022/12/02 17:29:17;;;;;;;65.00;27.50;;;22.40;51.40;;;;;;215315;1272;23015;-55
2022/12/02 17:34:32;;;;;;;55.70;27.30;;;22.50;51.00;;;;;;215443;1281;22461;-57
2022/12/02 17:39:49;;;;;;;58.50;28.80;;;22.50;51.40;;;;;;215649;1280;23842;-60
2022/12/02 17:45:07;;;;;;;54.90;27.30;;;22.60;50.50;;;;;;215522;1274;25439;-55
2022/12/02 17:50:23;;;;;;;52.00;25.20;;;22.60;50.70;;;;;;215588;1282;24271;-56
2022/12/02 17:55:40;;;;;;;50.40;25.30;;;22.60;50.90;;;;;;215545;1273;22472;-56
2022/12/02 18:00:44;;;;;;;52.40;24.40;;;22.70;51.10;;;;;;215598;1272;25552;-54
2022/12/02 18:05:59;;;;;;;52.10;23.60;;;22.70;50.60;;;;;;215017;1274;22487;-50
2022/12/02 18:11:05;;;;;;;43.20;23.90;;;22.80;50.60;;;;;;216122;1278;25195;-56
2022/12/02 18:16:10;;;;;;;49.00;23.70;;;22.90;50.50;;;;;;215653;1270;22697;-56
2022/12/02 18:21:22;;;;;;;50.70;22.90;;;22.90;50.30;;;;;;215475;1289;24047;-58
2022/12/02 18:26:26;;;;;;;38.40;21.10;;;22.90;50.10;;;;;;215556;1279;22959;-55
2022/12/02 18:31:30;;;;;;;40.80;21.40;;;23.00;50.20;;;;;;215563;1273;26491;-56
2022/12/02 18:36:36;;;;;;;44.90;21.50;;;23.00;50.00;;;;;;215396;1279;22517;-55
2022/12/02 18:41:41;;;;;;;36.70;19.50;;;23.00;50.00;;;;;;215785;1280;24184;-56
2022/12/02 18:46:49;;;;;;;40.20;19.60;;;23.10;49.90;;;;;;215292;1283;23843;-57
2022/12/02 18:51:59;;;;;;;37.60;18.80;;;23.10;50.30;;;;;;215719;1283;22583;-57
2022/12/02 18:57:04;;;;;;;;;;;23.20;49.50;;;;;;215625;1288;24221;-57
2022/12/02 19:02:09;;;;;;;37.20;20.00;;;23.20;49.40;;;;;;215634;1280;25615;-57
2022/12/02 19:07:16;;;;;;;34.90;19.60;;;23.30;49.40;;;;;;215843;1284;22623;-58
2022/12/02 19:12:21;;;;;;;31.40;17.30;;;23.40;49.10;;;;;;215704;1282;24386;-54
2022/12/02 19:17:25;;;;;;;33.10;18.10;;;23.30;49.30;;;;;;215909;1282;24531;-57
2022/12/02 19:22:34;;;;;;;31.90;18.60;;;23.30;49.30;;;;;;215725;1295;25534;-54
2022/12/02 19:27:47;;;;;;;33.30;18.70;;;23.20;49.40;;;;;;215268;1279;24254;-56
2022/12/02 19:33:04;;;;;;;33.30;17.50;;;23.00;49.80;;;;;;215509;1277;24367;-56
2022/12/02 19:38:23;;;;;;;30.60;16.50;;;22.90;50.00;;;;;;215397;1276;22441;-56
2022/12/02 19:43:32;;;;;;;31.20;17.70;;;22.70;50.60;;;;;;215657;1276;22814;-56
2022/12/02 19:48:47;;;;;;;30.80;16.50;;;22.60;50.50;;;;;;215312;1277;22477;-55
2022/12/02 19:53:57;;;;;;;27.30;14.90;;;22.50;51.00;;;;;;215600;1270;22700;-57
2022/12/02 19:59:04;;;;;;;31.00;15.20;;;22.50;50.00;;;;;;215308;1279;26781;-58
2022/12/02 20:04:17;;;;;;;23.90;14.10;;;22.50;51.40;;;;;;215655;1277;25354;-57
2022/12/02 20:09:48;;;;;;;28.10;15.40;;;22.50;50.70;;;;;;215547;1265;22456;-58
2022/12/02 20:14:57;;;;;;;157.80;53.80;;;22.40;50.70;;;;;;215582;1283;22445;-56
2022/12/02 20:20:09;;;;;;;258.60;84.50;;;22.30;50.20;;;;;;215470;1279;22635;-57
2022/12/02 20:25:21;;;;;;;299.80;100.50;;;22.20;50.60;;;;;;215595;1273;23907;-57
2022/12/02 20:30:35;;;;;;;242.60;79.60;;;22.20;50.10;;;;;;215711;1272;22579;-58
2022/12/02 20:35:49;;;;;;;233.30;79.10;;;22.00;49.80;;;;;;215373;1283;22463;-57
2022/12/02 20:40:56;;;;;;;219.90;74.30;;;22.00;50.10;;;;;;215560;1276;22570;-58
2022/12/02 20:46:18;;;;;;;201.30;70.80;;;21.90;50.50;;;;;;215473;1285;22971;-57
2022/12/02 20:51:35;;;;;;;182.50;65.40;;;21.80;49.90;;;;;;215553;1282;22489;-58
2022/12/02 20:57:24;;;;;;;190.20;67.00;;;21.80;50.00;;;;;;215206;1281;22451;-57
2022/12/02 21:02:54;;;;;;;181.20;66.20;;;21.70;50.60;;;;;;215125;1283;25251;-56
2022/12/02 21:08:21;;;;;;;151.20;54.00;;;21.70;50.00;;;;;;215191;1277;24966;-57
2022/12/02 21:13:37;;;;;;;138.30;51.80;;;21.60;49.80;;;;;;215450;1275;24460;-57
2022/12/02 21:18:47;;;;;;;137.70;50.90;;;21.50;49.60;;;;;;215460;1297;24458;-57
2022/12/02 21:24:07;;;;;;;125.70;45.60;;;21.50;49.50;;;;;;215237;1275;25377;-59
2022/12/02 21:29:21;;;;;;;120.00;44.50;;;21.40;49.50;;;;;;215675;1277;25289;-57
2022/12/02 21:35:03;;;;;;;117.00;41.90;;;21.40;49.60;;;;;;215509;1272;23998;-57
2022/12/02 21:40:14;;;;;;;106.50;40.90;;;21.30;49.40;;;;;;215572;1275;25340;-55
2022/12/02 21:45:25;;;;;;;110.20;42.90;;;21.30;49.30;;;;;;215623;1282;22715;-55
2022/12/02 21:50:33;;;;;;;105.30;39.70;;;21.30;49.80;;;;;;215330;1283;22692;-56
2022/12/02 21:55:42;;;;;;;107.10;39.90;;;21.30;50.10;;;;;;215657;1269;24063;-57
2022/12/02 22:01:36;;;;;;;91.40;36.40;;;21.50;49.80;;;;;;215547;1276;26467;-55
2022/12/02 22:06:23;;;;;;;93.10;39.00;;;21.90;49.30;;;;;;215205;1281;22463;-56
2022/12/02 22:11:36;;;;;;;94.80;40.60;;;22.20;48.80;;;;;;215428;1283;23910;-55
2022/12/02 22:16:42;;;;;;;98.40;36.90;;;22.20;48.70;;;;;;215364;1276;25352;-54
2022/12/02 22:21:59;;;;;;;91.00;36.90;;;22.10;49.00;;;;;;215362;1276;23011;-56
2022/12/02 22:27:07;;;;;;;85.80;36.50;;;22.10;49.20;;;;;;215084;1277;23831;-55
2022/12/02 22:32:12;;;;;;;83.80;33.90;;;22.20;49.10;;;;;;215194;1276;24226;-55
2022/12/02 22:37:17;;;;;;;88.40;36.40;;;22.30;48.80;;;;;;215326;1281;22468;-56
2022/12/02 22:42:29;;;;;;;82.70;33.20;;;22.40;50.30;;;;;;215304;1274;24115;-55
2022/12/02 22:47:38;;;;;;;73.40;32.00;;;22.40;53.00;;;;;;215164;1283;25660;-55
2022/12/02 22:52:58;;;;;;;71.10;31.20;;;22.50;50.80;;;;;;215530;1272;22532;-54
2022/12/02 22:58:14;;;;;;;;;;;22.60;51.30;;;;;;214620;1275;25329;-55
2022/12/02 23:03:26;;;;;;;66.00;30.70;;;22.70;50.50;;;;;;214385;1279;22474;-56
2022/12/02 23:08:32;;;;;;;75.90;31.10;;;22.70;50.60;;;;;;214690;1281;22648;-55
2022/12/02 23:13:36;;;;;;;68.30;29.50;;;22.80;50.70;;;;;;214557;1278;23847;-56
2022/12/02 23:18:43;;;;;;;61.00;28.40;;;22.90;50.70;;;;;;214873;1278;25631;-55
2022/12/02 23:23:53;;;;;;;62.40;29.00;;;22.90;50.70;;;;;;215323;1275;22507;-52
2022/12/02 23:29:20;;;;;;;53.80;26.80;;;23.00;50.80;;;;;;215490;1272;22464;-55
2022/12/02 23:34:28;;;;;;;51.30;25.80;;;23.00;50.60;;;;;;215537;1276;24243;-54
2022/12/02 23:39:33;;;;;;;59.00;26.10;;;23.00;50.30;;;;;;215346;1272;25362;-55
2022/12/02 23:44:39;;;;;;;57.90;27.90;;;23.00;50.30;;;;;;215564;1276;24274;-53
2022/12/02 23:49:44;;;;;;;57.00;25.20;;;23.00;50.40;;;;;;215501;1283;22581;-54
2022/12/02 23:54:49;;;;;;;54.70;25.30;;;23.00;50.20;;;;;;215918;1273;24937;-57
2022/12/02 23:59:54;;;;;;;54.30;24.80;;;23.10;50.50;;;;;;216186;1279;23178;-54
